createdAt,value
2018-12-05T00:02:06.880Z,4.96
2018-12-05T00:04:31.953Z,4.97
2018-12-05T00:06:57.122Z,4.69
2018-12-05T00:09:22.282Z,4.91
2018-12-05T00:11:47.564Z,4.68
2018-12-05T00:14:12.726Z,4.92
2018-12-05T00:16:37.788Z,4.88
2018-12-05T00:19:02.849Z,4.82
2018-12-05T00:21:27.927Z,4.86
2018-12-05T00:23:53.006Z,4.59
2018-12-05T00:26:18.058Z,4.79
2018-12-05T00:28:43.184Z,4.58
2018-12-05T00:31:20.235Z,4.20
2018-12-05T00:34:05.187Z,4.40
2018-12-05T00:36:30.260Z,4.47
2018-12-05T00:38:55.319Z,4.37
2018-12-05T00:41:20.551Z,4.61
2018-12-05T00:43:45.655Z,4.76
2018-12-05T00:46:10.763Z,4.70
2018-12-05T00:48:35.798Z,4.72
2018-12-05T00:51:00.894Z,4.74
2018-12-05T00:53:25.963Z,4.86
2018-12-05T00:55:51.038Z,4.48
2018-12-05T00:58:16.135Z,4.49
2018-12-05T01:00:41.164Z,4.58
2018-12-05T01:03:06.217Z,4.52
2018-12-05T01:05:41.604Z,4.54
2018-12-05T01:08:06.655Z,4.45
2018-12-05T01:10:31.832Z,4.46
2018-12-05T01:12:56.876Z,4.50
2018-12-05T01:15:21.931Z,4.47
2018-12-05T01:18:06.874Z,4.46
2018-12-05T01:20:31.923Z,4.55
2018-12-05T01:22:56.991Z,4.33
2018-12-05T01:25:22.034Z,4.40
2018-12-05T01:27:47.210Z,4.50
2018-12-05T01:30:32.149Z,4.23
2018-12-05T01:32:57.225Z,4.42
2018-12-05T01:35:22.358Z,4.51
2018-12-05T01:37:47.565Z,4.40
2018-12-05T01:40:12.746Z,4.47
2018-12-05T01:42:37.809Z,4.30
2018-12-05T01:45:02.998Z,4.11
2018-12-05T01:47:28.219Z,4.34
2018-12-05T01:49:53.531Z,4.21
2018-12-05T01:52:18.657Z,4.35
2018-12-05T01:54:43.723Z,4.32
2018-12-05T01:57:08.770Z,4.23
2018-12-05T01:59:33.868Z,3.73
2018-12-05T02:01:58.974Z,4.31
2018-12-05T02:04:24.229Z,4.03
2018-12-05T02:06:49.410Z,4.19
2018-12-05T02:09:14.649Z,4.29
2018-12-05T02:11:39.808Z,4.19
2018-12-05T02:14:05.872Z,4.27
2018-12-05T02:16:30.899Z,4.15
2018-12-05T02:18:55.988Z,4.08
2018-12-05T02:21:31.811Z,4.16
2018-12-05T02:23:56.947Z,4.24
2018-12-05T02:26:21.987Z,4.19
2018-12-05T02:28:47.081Z,4.16
2018-12-05T02:31:12.227Z,4.20
2018-12-05T02:33:37.287Z,4.08
2018-12-05T02:36:02.414Z,3.99
2018-12-05T02:38:27.550Z,4.04
2018-12-05T02:40:52.700Z,4.14
2018-12-05T02:43:17.747Z,4.01
2018-12-05T02:45:42.853Z,3.74
2018-12-05T02:48:07.916Z,3.82
2018-12-05T02:50:33.403Z,3.81
2018-12-05T02:52:58.449Z,3.88
2018-12-05T02:55:23.498Z,4.02
2018-12-05T02:57:48.729Z,3.89
2018-12-05T03:00:13.974Z,3.85
2018-12-05T03:02:39.008Z,4.02
2018-12-05T03:05:23.977Z,3.89
2018-12-05T03:07:49.105Z,3.75
2018-12-05T03:10:14.359Z,3.81
2018-12-05T03:12:39.510Z,3.85
2018-12-05T03:15:04.637Z,3.85
2018-12-05T03:17:29.688Z,3.92
2018-12-05T03:19:54.759Z,3.81
2018-12-05T03:22:19.832Z,3.71
2018-12-05T03:24:55.018Z,3.75
2018-12-05T03:27:20.058Z,3.83
2018-12-05T03:29:45.136Z,3.60
2018-12-05T03:32:10.277Z,3.50
2018-12-05T03:34:35.435Z,3.72
2018-12-05T03:37:00.471Z,3.71
2018-12-05T03:39:25.530Z,3.62
2018-12-05T03:41:50.607Z,3.28
2018-12-05T03:44:15.684Z,3.48
2018-12-05T03:46:40.810Z,3.67
2018-12-05T03:49:05.993Z,3.58
2018-12-05T03:51:31.062Z,3.77
2018-12-05T03:53:56.143Z,3.69
2018-12-05T03:56:33.286Z,3.74
2018-12-05T03:58:58.316Z,3.69
2018-12-05T04:01:23.551Z,3.67
2018-12-05T04:03:48.606Z,3.46
2018-12-05T04:06:13.799Z,3.60
2018-12-05T04:08:38.837Z,3.59
2018-12-05T04:11:04.068Z,3.57
2018-12-05T04:13:29.138Z,3.62
2018-12-05T04:15:54.363Z,3.66
2018-12-05T04:18:19.441Z,3.67
2018-12-05T04:20:44.573Z,3.62
2018-12-05T04:23:09.747Z,3.57
2018-12-05T04:25:34.813Z,3.57
2018-12-05T04:27:59.945Z,3.41
2018-12-05T04:30:25.009Z,3.59
2018-12-05T04:32:50.070Z,3.60
2018-12-05T04:35:15.148Z,3.34
2018-12-05T04:37:40.198Z,3.51
2018-12-05T04:40:05.690Z,3.25
2018-12-05T04:42:30.827Z,3.23
2018-12-05T04:44:55.901Z,3.39
2018-12-05T04:47:21.024Z,3.06
2018-12-05T04:49:46.104Z,3.40
2018-12-05T04:52:11.152Z,2.77
2018-12-05T04:54:36.219Z,2.59
2018-12-05T04:57:01.300Z,2.63
2018-12-05T04:59:26.361Z,2.99
2018-12-05T05:02:02.010Z,2.76
2018-12-05T05:04:27.058Z,2.59
2018-12-05T05:06:52.143Z,2.75
2018-12-05T05:09:17.220Z,2.85
2018-12-05T05:14:19.503Z,3.05
2018-12-05T05:16:44.536Z,3.36
2018-12-05T05:19:09.703Z,3.22
2018-12-05T05:21:34.752Z,3.24
2018-12-05T05:23:59.853Z,2.98
2018-12-05T05:26:24.933Z,3.16
2018-12-05T05:28:50.015Z,2.78
2018-12-05T05:31:15.107Z,3.15
2018-12-05T05:33:40.272Z,3.42
2018-12-05T05:36:25.310Z,3.28
2018-12-05T05:38:50.358Z,3.31
2018-12-05T05:41:15.429Z,3.40
2018-12-05T05:43:40.696Z,3.39
2018-12-05T05:46:05.851Z,3.46
2018-12-05T05:48:31.098Z,3.36
2018-12-05T05:50:56.179Z,3.31
2018-12-05T05:53:21.315Z,3.30
2018-12-05T05:55:46.373Z,3.33
2018-12-05T05:58:11.463Z,3.14
2018-12-05T06:00:36.620Z,3.21
2018-12-05T06:03:01.804Z,2.89
2018-12-05T06:05:26.904Z,3.27
2018-12-05T06:07:51.959Z,3.02
2018-12-05T06:10:17.069Z,3.14
2018-12-05T06:12:42.114Z,3.19
2018-12-05T06:15:08.782Z,3.12
2018-12-05T06:17:34.033Z,3.19
2018-12-05T06:19:59.235Z,3.07
2018-12-05T06:22:24.276Z,2.88
2018-12-05T06:24:49.393Z,3.15
2018-12-05T06:27:14.518Z,3.14
2018-12-05T06:29:39.714Z,3.18
2018-12-05T06:32:04.870Z,3.36
2018-12-05T06:34:36.810Z,3.21
2018-12-05T06:37:01.910Z,3.05
2018-12-05T06:39:26.945Z,3.27
2018-12-05T06:41:52.078Z,3.27
2018-12-05T06:44:17.167Z,3.40
2018-12-05T06:46:42.241Z,3.37
2018-12-05T06:49:07.386Z,3.40
2018-12-05T06:51:32.509Z,3.30
2018-12-05T06:53:57.581Z,3.42
2018-12-05T06:56:22.743Z,3.30
2018-12-05T06:58:47.919Z,3.32
2018-12-05T07:01:13.116Z,3.33
2018-12-05T07:03:38.258Z,3.32
2018-12-05T07:06:03.569Z,3.33
2018-12-05T07:08:28.718Z,2.98
2018-12-05T07:10:53.892Z,3.14
2018-12-05T07:13:18.981Z,3.29
2018-12-05T07:15:44.075Z,3.30
2018-12-05T07:18:09.158Z,3.30
2018-12-05T07:20:34.293Z,3.47
2018-12-05T07:22:59.345Z,3.35
2018-12-05T07:25:24.557Z,3.32
2018-12-05T07:27:49.617Z,3.31
2018-12-05T07:30:14.722Z,3.47
2018-12-05T07:32:39.810Z,3.32
2018-12-05T07:35:05.251Z,3.23
2018-12-05T07:37:30.328Z,3.04
2018-12-05T07:39:55.500Z,3.40
2018-12-05T07:42:20.618Z,3.14
2018-12-05T07:44:45.774Z,3.47
2018-12-05T07:47:10.911Z,3.49
2018-12-05T07:49:35.965Z,3.47
2018-12-05T07:52:01.064Z,3.40
2018-12-05T07:54:26.118Z,3.42
2018-12-05T07:56:51.225Z,3.54
2018-12-05T07:59:16.290Z,3.58
2018-12-05T08:01:41.381Z,3.58
2018-12-05T08:04:06.635Z,2.91
2018-12-05T08:06:31.709Z,3.43
2018-12-05T08:08:56.795Z,3.49
2018-12-05T08:11:21.880Z,3.84
2018-12-05T08:13:47.004Z,3.68
2018-12-05T08:16:12.122Z,3.72
2018-12-05T08:18:37.306Z,3.98
2018-12-05T08:21:02.549Z,3.97
2018-12-05T08:23:27.715Z,3.99
2018-12-05T08:25:52.904Z,4.09
2018-12-05T08:31:09.338Z,4.18
2018-12-05T08:33:32.461Z,4.17
2018-12-05T08:35:55.593Z,4.30
2018-12-05T08:38:18.796Z,4.40
2018-12-05T08:40:41.927Z,4.44
2018-12-05T08:43:05.079Z,4.28
2018-12-05T08:45:28.259Z,4.37
2018-12-05T08:47:51.464Z,4.60
2018-12-05T08:50:14.701Z,4.34
2018-12-05T08:52:37.824Z,4.48
2018-12-05T08:55:00.969Z,4.47
2018-12-05T08:57:24.070Z,4.35
2018-12-05T08:59:47.201Z,4.75
2018-12-05T09:02:10.334Z,4.91
2018-12-05T09:04:33.463Z,5.00
2018-12-05T09:06:56.570Z,5.03
2018-12-05T09:09:19.711Z,5.00
2018-12-05T09:11:42.891Z,4.91
2018-12-05T09:14:06.086Z,4.99
2018-12-05T09:16:29.208Z,4.98
2018-12-05T09:18:52.337Z,5.02
2018-12-05T09:21:15.430Z,5.00
2018-12-05T09:23:38.521Z,4.96
2018-12-05T09:26:01.659Z,5.03
2018-12-05T09:28:24.754Z,5.13
2018-12-05T09:30:47.874Z,5.50
2018-12-05T09:33:10.997Z,5.71
2018-12-05T09:35:34.087Z,5.48
2018-12-05T09:37:57.207Z,5.40
2018-12-05T09:40:20.292Z,5.44
2018-12-05T09:42:43.454Z,5.55
2018-12-05T09:45:09.934Z,5.61
2018-12-05T09:47:33.078Z,6.10
2018-12-05T09:49:56.191Z,6.06
2018-12-05T09:52:19.316Z,6.03
2018-12-05T09:54:42.756Z,6.53
2018-12-05T09:57:05.914Z,6.49
2018-12-05T09:59:29.024Z,6.75
2018-12-05T10:01:52.216Z,6.81
2018-12-05T10:04:15.335Z,7.38
2018-12-05T10:06:38.687Z,7.46
2018-12-05T10:09:01.839Z,7.63
2018-12-05T10:11:24.937Z,7.94
2018-12-05T10:13:48.074Z,7.87
2018-12-05T10:16:11.187Z,8.14
2018-12-05T10:18:34.607Z,7.93
2018-12-05T10:20:57.804Z,7.68
2018-12-05T10:23:20.912Z,8.72
2018-12-05T10:25:44.031Z,8.28
2018-12-05T10:28:07.131Z,8.46
2018-12-05T10:30:30.298Z,9.25
2018-12-05T10:32:53.414Z,8.90
2018-12-05T10:35:16.500Z,9.29
2018-12-05T10:37:39.626Z,9.01
2018-12-05T10:40:02.759Z,8.98
2018-12-05T10:42:25.851Z,9.09
2018-12-05T10:44:49.070Z,9.64
2018-12-05T10:47:12.195Z,10.16
2018-12-05T10:49:35.334Z,10.20
2018-12-05T10:51:58.463Z,10.30
2018-12-05T10:54:21.556Z,10.50
2018-12-05T10:56:45.935Z,10.52
2018-12-05T10:59:09.409Z,10.33
2018-12-05T11:01:38.120Z,10.56
2018-12-05T11:04:03.269Z,10.76
2018-12-05T11:06:31.842Z,10.77
2018-12-05T11:09:00.533Z,10.72
2018-12-05T11:11:29.340Z,11.14
2018-12-05T11:13:57.980Z,10.83
2018-12-05T11:16:26.691Z,11.43
2018-12-05T11:18:55.279Z,12.04
2018-12-05T11:21:24.101Z,12.99
2018-12-05T11:23:54.936Z,13.19
2018-12-05T11:26:19.824Z,12.59
2018-12-05T11:28:42.995Z,12.27
2018-12-05T11:31:06.144Z,12.13
2018-12-05T11:33:29.263Z,12.77
2018-12-05T11:35:52.370Z,13.11
2018-12-05T11:38:15.611Z,13.16
2018-12-05T11:40:38.754Z,13.32
2018-12-05T11:43:01.856Z,13.08
2018-12-05T11:45:25.022Z,13.06
2018-12-05T11:47:48.178Z,13.72
2018-12-05T11:50:11.350Z,14.03
2018-12-05T11:52:34.467Z,14.68
2018-12-05T11:54:57.568Z,14.89
2018-12-05T11:57:20.719Z,13.96
2018-12-05T11:59:43.876Z,13.58
2018-12-05T12:02:07.040Z,13.24
2018-12-05T12:04:30.149Z,13.11
2018-12-05T12:06:53.237Z,13.09
2018-12-05T12:09:16.350Z,13.19
2018-12-05T12:11:39.470Z,13.22
2018-12-05T12:14:02.678Z,13.21
2018-12-05T12:18:55.239Z,13.46
2018-12-05T12:21:18.350Z,14.88
2018-12-05T12:23:41.494Z,14.79
2018-12-05T12:26:04.690Z,15.72
2018-12-05T12:28:27.841Z,14.82
2018-12-05T12:30:50.956Z,13.55
2018-12-05T12:33:14.064Z,13.14
2018-12-05T12:35:37.198Z,13.09
2018-12-05T12:38:00.311Z,13.03
2018-12-05T12:40:23.452Z,13.11
2018-12-05T12:42:46.563Z,12.95
2018-12-05T12:45:09.716Z,13.29
2018-12-05T12:47:32.875Z,14.12
2018-12-05T12:49:55.968Z,16.62
2018-12-05T12:52:19.091Z,16.75
2018-12-05T12:54:42.206Z,14.46
2018-12-05T12:57:05.363Z,13.27
2018-12-05T12:59:28.499Z,13.21
2018-12-05T13:01:51.665Z,13.35
2018-12-05T13:04:14.783Z,13.27
2018-12-05T13:06:37.952Z,13.68
2018-12-05T13:09:01.064Z,13.69
2018-12-05T13:11:24.180Z,13.67
2018-12-05T13:13:47.339Z,13.58
2018-12-05T13:16:10.438Z,13.58
2018-12-05T13:18:33.560Z,12.87
2018-12-05T13:20:56.678Z,12.74
2018-12-05T13:23:19.820Z,12.76
2018-12-05T13:25:42.922Z,12.49
2018-12-05T13:28:06.038Z,12.19
2018-12-05T13:30:29.178Z,11.96
2018-12-05T13:32:52.294Z,11.70
2018-12-05T13:35:15.479Z,11.69
2018-12-05T13:37:38.628Z,11.49
2018-12-05T13:40:01.758Z,11.20
2018-12-05T13:42:24.912Z,11.34
2018-12-05T13:44:48.049Z,11.29
2018-12-05T13:47:11.225Z,11.09
2018-12-05T13:49:34.366Z,11.07
2018-12-05T13:51:57.478Z,10.95
2018-12-05T13:54:20.626Z,10.77
2018-12-05T13:56:43.732Z,10.73
2018-12-05T13:59:06.938Z,10.70
2018-12-05T14:01:30.032Z,10.44
2018-12-05T14:03:53.159Z,10.49
2018-12-05T14:06:16.261Z,10.40
2018-12-05T14:08:39.376Z,10.26
2018-12-05T14:11:02.542Z,10.27
2018-12-05T14:13:25.776Z,10.17
2018-12-05T14:15:48.892Z,10.17
2018-12-05T14:18:12.006Z,10.15
2018-12-05T14:20:35.177Z,9.87
2018-12-05T14:22:58.312Z,9.92
2018-12-05T14:25:21.417Z,9.90
2018-12-05T14:27:44.534Z,9.69
2018-12-05T14:30:08.673Z,9.60
2018-12-05T14:32:31.797Z,9.61
2018-12-05T14:34:54.914Z,9.51
2018-12-05T14:37:18.072Z,9.32
2018-12-05T14:39:41.209Z,9.45
2018-12-05T14:42:04.366Z,9.29
2018-12-05T14:44:27.541Z,9.22
2018-12-05T14:46:50.705Z,9.03
2018-12-05T14:49:13.857Z,9.10
2018-12-05T14:51:37.118Z,9.10
2018-12-05T14:54:00.215Z,8.88
2018-12-05T14:56:23.407Z,8.89
2018-12-05T14:58:46.567Z,8.82
2018-12-05T15:01:09.729Z,8.73
2018-12-05T15:03:32.846Z,8.58
2018-12-05T15:05:55.963Z,8.44
2018-12-05T15:08:19.151Z,8.58
2018-12-05T15:10:42.362Z,8.51
2018-12-05T15:13:05.525Z,8.31
2018-12-05T15:15:28.672Z,8.48
2018-12-05T15:17:51.814Z,8.28
2018-12-05T15:20:14.975Z,8.14
2018-12-05T15:22:38.082Z,8.13
2018-12-05T15:25:01.199Z,8.17
2018-12-05T15:27:24.392Z,8.08
2018-12-05T15:29:47.616Z,8.04
2018-12-05T15:32:10.692Z,8.14
2018-12-05T15:34:33.816Z,7.97
2018-12-05T15:36:56.941Z,8.07
2018-12-05T15:39:20.030Z,7.94
2018-12-05T15:41:43.236Z,7.78
2018-12-05T15:44:06.405Z,7.71
2018-12-05T15:46:29.545Z,7.63
2018-12-05T15:48:52.662Z,7.67
2018-12-05T15:51:15.808Z,7.77
2018-12-05T15:53:38.919Z,7.72
2018-12-05T15:56:02.069Z,7.47
2018-12-05T15:58:25.160Z,7.45
2018-12-05T16:00:48.302Z,7.52
2018-12-05T16:03:11.446Z,7.50
2018-12-05T16:05:34.574Z,7.37
2018-12-05T16:07:57.734Z,7.42
2018-12-05T16:10:20.887Z,7.46
2018-12-05T16:12:44.002Z,7.41
2018-12-05T16:15:07.306Z,7.28
2018-12-05T16:17:30.446Z,7.40
2018-12-05T16:19:53.629Z,7.50
2018-12-05T16:22:16.744Z,7.47
2018-12-05T16:24:39.941Z,7.42
2018-12-05T16:27:03.074Z,7.40
2018-12-05T16:29:26.196Z,7.34
2018-12-05T16:31:49.346Z,7.16
2018-12-05T16:34:12.505Z,7.19
2018-12-05T16:36:35.637Z,7.27
2018-12-05T16:38:58.824Z,7.31
2018-12-05T16:41:21.932Z,7.37
2018-12-05T16:43:45.111Z,7.13
2018-12-05T16:46:08.290Z,7.18
2018-12-05T16:48:31.381Z,7.14
2018-12-05T16:50:54.551Z,7.28
2018-12-05T16:53:17.661Z,7.35
2018-12-05T16:55:40.830Z,7.31
2018-12-05T16:58:03.965Z,7.36
2018-12-05T17:03:02.088Z,7.10
2018-12-05T17:05:25.316Z,7.09
2018-12-05T17:07:48.550Z,7.17
2018-12-05T17:10:11.721Z,7.16
2018-12-05T17:12:34.815Z,6.51
2018-12-05T17:14:57.946Z,7.10
2018-12-05T17:17:21.136Z,7.16
2018-12-05T17:19:44.256Z,7.10
2018-12-05T17:22:07.517Z,7.10
2018-12-05T17:24:30.800Z,7.04
2018-12-05T17:26:53.929Z,7.08
2018-12-05T17:29:17.147Z,6.96
2018-12-05T17:31:40.256Z,6.79
2018-12-05T17:34:03.457Z,6.78
2018-12-05T17:36:26.611Z,6.90
2018-12-05T17:38:49.757Z,6.42
2018-12-05T17:41:12.986Z,6.55
2018-12-05T17:43:36.117Z,6.82
2018-12-05T17:45:59.270Z,6.87
2018-12-05T17:48:22.410Z,6.74
2018-12-05T17:50:45.534Z,6.78
2018-12-05T17:53:08.711Z,6.86
2018-12-05T17:55:32.083Z,6.89
2018-12-05T17:57:55.185Z,6.85
2018-12-05T18:00:18.360Z,6.42
2018-12-05T18:02:41.445Z,6.71
2018-12-05T18:05:04.733Z,6.08
2018-12-05T18:07:27.878Z,6.73
2018-12-05T18:09:50.989Z,6.81
2018-12-05T18:12:14.174Z,6.18
2018-12-05T18:14:37.295Z,6.57
2018-12-05T18:17:00.479Z,6.73
2018-12-05T18:19:23.744Z,6.66
2018-12-05T18:21:46.939Z,6.64
2018-12-05T18:24:10.078Z,6.57
2018-12-05T18:26:33.237Z,6.69
2018-12-05T18:28:56.354Z,6.38
2018-12-05T18:31:19.557Z,6.32
2018-12-05T18:33:42.678Z,6.57
2018-12-05T18:36:05.823Z,6.80
2018-12-05T18:38:28.950Z,6.67
2018-12-05T18:40:52.099Z,6.85
2018-12-05T18:43:15.264Z,6.62
2018-12-05T18:45:38.379Z,6.49
2018-12-05T18:48:01.619Z,6.44
2018-12-05T18:50:24.733Z,6.64
2018-12-05T18:52:47.869Z,6.83
2018-12-05T18:55:11.074Z,6.65
2018-12-05T18:57:34.257Z,6.32
2018-12-05T19:00:01.260Z,6.15
2018-12-05T19:02:22.518Z,5.96
2018-12-05T19:04:45.986Z,6.50
2018-12-05T19:07:09.124Z,6.72
2018-12-05T19:09:32.227Z,6.52
2018-12-05T19:11:55.406Z,6.55
2018-12-05T19:14:24.143Z,6.58
2018-12-05T19:16:47.267Z,6.08
2018-12-05T19:19:10.387Z,6.27
2018-12-05T19:21:33.507Z,6.22
2018-12-05T19:23:56.646Z,5.97
2018-12-05T19:26:19.873Z,6.58
2018-12-05T19:28:43.033Z,6.57
2018-12-05T19:31:06.212Z,6.72
2018-12-05T19:33:29.315Z,6.30
2018-12-05T19:35:52.470Z,6.79
2018-12-05T19:38:15.595Z,6.59
2018-12-05T19:40:38.720Z,6.69
2018-12-05T19:43:01.912Z,6.67
2018-12-05T19:45:25.075Z,6.57
2018-12-05T19:47:48.178Z,6.49
2018-12-05T19:50:11.446Z,6.32
2018-12-05T19:52:34.587Z,6.24
2018-12-05T19:54:57.671Z,6.54
2018-12-05T19:57:20.835Z,6.78
2018-12-05T19:59:43.939Z,6.89
2018-12-05T20:02:07.222Z,6.48
2018-12-05T20:04:30.321Z,6.93
2018-12-05T20:06:53.472Z,6.86
2018-12-05T20:09:16.701Z,6.63
2018-12-05T20:11:39.869Z,6.26
2018-12-05T20:14:03.236Z,6.97
2018-12-05T20:16:26.393Z,6.87
2018-12-05T20:18:49.484Z,7.04
2018-12-05T20:21:12.618Z,7.01
2018-12-05T20:23:35.767Z,7.17
2018-12-05T20:25:58.965Z,7.01
2018-12-05T20:28:22.067Z,6.61
2018-12-05T20:30:45.198Z,7.05
2018-12-05T20:33:08.355Z,6.67
2018-12-05T20:35:31.475Z,7.07
2018-12-05T20:37:54.629Z,7.07
2018-12-05T20:40:17.811Z,7.17
2018-12-05T20:42:40.968Z,7.11
2018-12-05T20:45:05.384Z,7.13
2018-12-05T20:47:28.517Z,6.94
2018-12-05T20:49:51.657Z,6.48
2018-12-05T20:52:14.776Z,6.91
2018-12-05T20:54:37.952Z,6.68
2018-12-05T20:57:01.043Z,6.94
2018-12-05T20:59:24.191Z,6.53
2018-12-05T21:01:47.372Z,7.05
2018-12-05T21:04:10.494Z,6.75
2018-12-05T21:06:33.683Z,7.11
2018-12-05T21:08:56.819Z,7.12
2018-12-05T21:11:19.975Z,6.73
2018-12-05T21:13:43.104Z,7.02
2018-12-05T21:16:06.239Z,6.89
2018-12-05T21:18:29.394Z,6.88
2018-12-05T21:20:52.524Z,6.99
2018-12-05T21:23:15.649Z,6.91
2018-12-05T21:25:38.798Z,7.01
2018-12-05T21:28:01.968Z,6.18
2018-12-05T21:30:25.184Z,6.92
2018-12-05T21:32:48.284Z,6.86
2018-12-05T21:35:11.408Z,7.02
2018-12-05T21:37:34.556Z,6.87
2018-12-05T21:39:57.703Z,6.84
2018-12-05T21:42:21.683Z,6.97
2018-12-05T21:44:44.810Z,6.75
2018-12-05T21:47:07.975Z,7.08
2018-12-05T21:49:31.087Z,6.93
2018-12-05T21:51:54.203Z,6.99
2018-12-05T21:54:17.367Z,7.09
2018-12-05T21:56:40.469Z,6.97
2018-12-05T21:59:03.617Z,6.80
2018-12-05T22:01:26.725Z,6.68
2018-12-05T22:03:49.824Z,6.49
2018-12-05T22:06:13.010Z,7.12
2018-12-05T22:08:36.160Z,6.91
2018-12-05T22:10:59.334Z,6.55
2018-12-05T22:13:22.519Z,6.30
2018-12-05T22:15:45.673Z,6.97
2018-12-05T22:18:08.839Z,6.35
2018-12-05T22:20:32.055Z,6.31
2018-12-05T22:22:55.230Z,6.29
2018-12-05T22:25:18.373Z,6.53
2018-12-05T22:27:41.478Z,6.32
2018-12-05T22:30:05.885Z,6.52
2018-12-05T22:32:29.001Z,6.80
2018-12-05T22:34:52.118Z,7.09
2018-12-05T22:37:15.266Z,6.78
2018-12-05T22:39:38.384Z,7.18
2018-12-05T22:42:01.545Z,6.84
2018-12-05T22:44:24.648Z,6.83
2018-12-05T22:46:47.757Z,7.02
2018-12-05T22:49:10.903Z,6.95
2018-12-05T22:51:34.016Z,7.08
2018-12-05T22:53:57.139Z,7.26
2018-12-05T22:56:20.299Z,7.17
2018-12-05T22:58:43.387Z,7.22
2018-12-05T23:01:06.628Z,6.97
2018-12-05T23:03:29.792Z,7.18
2018-12-05T23:05:52.893Z,6.99
2018-12-05T23:08:16.036Z,7.13
2018-12-05T23:10:39.163Z,7.26
2018-12-05T23:13:02.311Z,6.97
2018-12-05T23:15:25.498Z,6.89
2018-12-05T23:17:48.599Z,7.16
2018-12-05T23:20:11.725Z,7.22
2018-12-05T23:22:34.837Z,7.26
2018-12-05T23:24:57.945Z,6.92
2018-12-05T23:27:21.176Z,7.06
2018-12-05T23:29:44.286Z,6.92
2018-12-05T23:32:07.404Z,7.32
2018-12-05T23:34:30.514Z,6.87
2018-12-05T23:36:53.660Z,6.99
2018-12-05T23:39:16.791Z,7.25
2018-12-05T23:41:39.938Z,6.78
2018-12-05T23:44:03.119Z,7.11
2018-12-05T23:46:26.275Z,7.08
2018-12-05T23:48:49.376Z,6.31
2018-12-05T23:51:12.492Z,6.38
2018-12-05T23:53:35.616Z,6.91
2018-12-05T23:55:58.807Z,7.03
2018-12-05T23:58:21.926Z,7.15
